sensor_id;sensor_type;location;lat;lon;timestamp;temperature;humidity
18218;DHT22;9234;49.344;11.120;2023-06-22T00:00:35;18.70;99.90
18218;DHT22;9234;49.344;11.120;2023-06-22T00:03:03;18.70;99.90
18218;DHT22;9234;49.344;11.120;2023-06-22T00:05:32;18.60;99.90
18218;DHT22;9234;49.344;11.120;2023-06-22T00:08:03;18.60;99.90
18218;DHT22;9234;49.344;11.120;2023-06-22T00:10:32;18.60;99.90
18218;DHT22;9234;49.344;11.120;2023-06-22T00:13:03;18.60;99.90
18218;DHT22;9234;49.344;11.120;2023-06-22T00:15:31;18.50;99.90
18218;DHT22;9234;49.344;11.120;2023-06-22T00:18:00;18.50;99.90
18218;DHT22;9234;49.344;11.120;2023-06-22T00:20:29;18.50;99.90
18218;DHT22;9234;49.344;11.120;2023-06-22T00:22:59;18.40;99.90
18218;DHT22;9234;49.344;11.120;2023-06-22T00:25:28;18.40;99.90
18218;DHT22;9234;49.344;11.120;2023-06-22T00:27:57;18.40;99.90
18218;DHT22;9234;49.344;11.120;2023-06-22T00:30:26;18.40;99.90
18218;DHT22;9234;49.344;11.120;2023-06-22T00:32:57;18.40;99.90
18218;DHT22;9234;49.344;11.120;2023-06-22T00:35:26;18.30;99.90
18218;DHT22;9234;49.344;11.120;2023-06-22T00:37:59;18.30;99.90
18218;DHT22;9234;49.344;11.120;2023-06-22T00:40:29;18.30;99.90
18218;DHT22;9234;49.344;11.120;2023-06-22T00:43:01;18.30;99.90
18218;DHT22;9234;49.344;11.120;2023-06-22T00:45:30;18.30;99.90
18218;DHT22;9234;49.344;11.120;2023-06-22T00:47:59;18.20;99.90
18218;DHT22;9234;49.344;11.120;2023-06-22T00:50:30;18.20;99.90
18218;DHT22;9234;49.344;11.120;2023-06-22T00:53:03;18.20;99.90
18218;DHT22;9234;49.344;11.120;2023-06-22T00:55:36;18.20;99.90
18218;DHT22;9234;49.344;11.120;2023-06-22T00:58:07;18.10;99.90
18218;DHT22;9234;49.344;11.120;2023-06-22T01:00:38;18.10;99.90
18218;DHT22;9234;49.344;11.120;2023-06-22T01:03:08;18.10;99.90
18218;DHT22;9234;49.344;11.120;2023-06-22T01:05:38;18.00;99.90
18218;DHT22;9234;49.344;11.120;2023-06-22T01:08:23;18.00;99.90
18218;DHT22;9234;49.344;11.120;2023-06-22T01:11:02;18.00;99.90
18218;DHT22;9234;49.344;11.120;2023-06-22T01:13:41;18.00;99.90
18218;DHT22;9234;49.344;11.120;2023-06-22T01:16:20;17.90;99.90
18218;DHT22;9234;49.344;11.120;2023-06-22T01:18:52;17.90;99.90
18218;DHT22;9234;49.344;11.120;2023-06-22T01:21:29;17.90;99.90
18218;DHT22;9234;49.344;11.120;2023-06-22T01:24:10;17.90;99.90
18218;DHT22;9234;49.344;11.120;2023-06-22T01:26:54;17.80;99.90
18218;DHT22;9234;49.344;11.120;2023-06-22T01:29:31;17.80;99.90
18218;DHT22;9234;49.344;11.120;2023-06-22T01:32:02;17.80;99.90
18218;DHT22;9234;49.344;11.120;2023-06-22T01:34:36;17.80;99.90
18218;DHT22;9234;49.344;11.120;2023-06-22T01:37:06;17.80;99.90
18218;DHT22;9234;49.344;11.120;2023-06-22T01:39:36;17.80;99.90
18218;DHT22;9234;49.344;11.120;2023-06-22T01:42:05;17.70;99.90
18218;DHT22;9234;49.344;11.120;2023-06-22T01:44:36;17.70;99.90
18218;DHT22;9234;49.344;11.120;2023-06-22T01:47:08;17.70;99.90
18218;DHT22;9234;49.344;11.120;2023-06-22T01:49:37;17.70;99.90
18218;DHT22;9234;49.344;11.120;2023-06-22T01:52:06;17.70;99.90
18218;DHT22;9234;49.344;11.120;2023-06-22T01:54:35;17.70;99.90
18218;DHT22;9234;49.344;11.120;2023-06-22T01:57:05;17.70;99.90
18218;DHT22;9234;49.344;11.120;2023-06-22T01:59:38;17.70;99.90
18218;DHT22;9234;49.344;11.120;2023-06-22T02:02:15;17.60;99.90
18218;DHT22;9234;49.344;11.120;2023-06-22T02:04:51;17.60;99.90
18218;DHT22;9234;49.344;11.120;2023-06-22T02:07:24;17.60;99.90
18218;DHT22;9234;49.344;11.120;2023-06-22T02:10:02;17.60;99.90
18218;DHT22;9234;49.344;11.120;2023-06-22T02:12:35;17.60;99.90
18218;DHT22;9234;49.344;11.120;2023-06-22T02:15:07;17.50;99.90
18218;DHT22;9234;49.344;11.120;2023-06-22T02:17:38;17.50;99.90
18218;DHT22;9234;49.344;11.120;2023-06-22T02:20:12;17.50;99.90
18218;DHT22;9234;49.344;11.120;2023-06-22T02:22:41;17.50;99.90
18218;DHT22;9234;49.344;11.120;2023-06-22T02:25:10;17.50;99.90
18218;DHT22;9234;49.344;11.120;2023-06-22T02:27:39;17.40;99.90
18218;DHT22;9234;49.344;11.120;2023-06-22T02:30:10;17.40;99.90
18218;DHT22;9234;49.344;11.120;2023-06-22T02:32:39;17.40;99.90
18218;DHT22;9234;49.344;11.120;2023-06-22T02:35:09;17.40;99.90
18218;DHT22;9234;49.344;11.120;2023-06-22T02:37:38;17.40;99.90
18218;DHT22;9234;49.344;11.120;2023-06-22T02:40:09;17.40;99.90
18218;DHT22;9234;49.344;11.120;2023-06-22T02:42:40;17.40;99.90
18218;DHT22;9234;49.344;11.120;2023-06-22T02:45:10;17.40;99.90
18218;DHT22;9234;49.344;11.120;2023-06-22T02:47:38;17.30;99.90
18218;DHT22;9234;49.344;11.120;2023-06-22T02:50:07;17.30;99.90
18218;DHT22;9234;49.344;11.120;2023-06-22T02:52:36;17.30;99.90
18218;DHT22;9234;49.344;11.120;2023-06-22T02:55:06;17.30;99.90
18218;DHT22;9234;49.344;11.120;2023-06-22T02:57:35;17.30;99.90
18218;DHT22;9234;49.344;11.120;2023-06-22T03:00:05;17.30;99.90
18218;DHT22;9234;49.344;11.120;2023-06-22T03:02:47;17.30;99.90
18218;DHT22;9234;49.344;11.120;2023-06-22T03:05:18;17.20;99.90
18218;DHT22;9234;49.344;11.120;2023-06-22T03:07:47;17.20;99.90
18218;DHT22;9234;49.344;11.120;2023-06-22T03:10:16;17.20;99.90
18218;DHT22;9234;49.344;11.120;2023-06-22T03:12:44;17.20;99.90
18218;DHT22;9234;49.344;11.120;2023-06-22T03:15:12;17.20;99.90
18218;DHT22;9234;49.344;11.120;2023-06-22T03:17:41;17.30;99.90
18218;DHT22;9234;49.344;11.120;2023-06-22T03:20:14;17.20;99.90
18218;DHT22;9234;49.344;11.120;2023-06-22T03:22:42;17.30;99.90
18218;DHT22;9234;49.344;11.120;2023-06-22T03:25:11;17.30;99.90
18218;DHT22;9234;49.344;11.120;2023-06-22T03:27:43;17.30;99.90
18218;DHT22;9234;49.344;11.120;2023-06-22T03:30:12;17.40;99.90
18218;DHT22;9234;49.344;11.120;2023-06-22T03:32:40;17.40;99.90
18218;DHT22;9234;49.344;11.120;2023-06-22T03:35:10;17.40;99.90
18218;DHT22;9234;49.344;11.120;2023-06-22T03:37:42;17.40;99.90
18218;DHT22;9234;49.344;11.120;2023-06-22T03:40:11;17.40;99.90
18218;DHT22;9234;49.344;11.120;2023-06-22T03:42:40;17.40;99.90
18218;DHT22;9234;49.344;11.120;2023-06-22T03:45:10;17.40;99.90
18218;DHT22;9234;49.344;11.120;2023-06-22T03:47:40;17.50;99.90
18218;DHT22;9234;49.344;11.120;2023-06-22T03:50:09;17.50;99.90
18218;DHT22;9234;49.344;11.120;2023-06-22T03:52:38;17.50;99.90
18218;DHT22;9234;49.344;11.120;2023-06-22T03:55:08;17.50;99.90
18218;DHT22;9234;49.344;11.120;2023-06-22T03:57:37;17.50;99.90
18218;DHT22;9234;49.344;11.120;2023-06-22T04:00:06;17.60;99.90
18218;DHT22;9234;49.344;11.120;2023-06-22T04:02:40;17.60;99.90
18218;DHT22;9234;49.344;11.120;2023-06-22T04:05:09;17.60;99.90
18218;DHT22;9234;49.344;11.120;2023-06-22T04:07:37;17.70;99.90
18218;DHT22;9234;49.344;11.120;2023-06-22T04:10:08;17.70;99.90
18218;DHT22;9234;49.344;11.120;2023-06-22T04:12:39;17.70;99.90
18218;DHT22;9234;49.344;11.120;2023-06-22T04:15:08;17.80;99.90
18218;DHT22;9234;49.344;11.120;2023-06-22T04:17:38;17.80;99.90
18218;DHT22;9234;49.344;11.120;2023-06-22T04:20:08;17.70;99.90
18218;DHT22;9234;49.344;11.120;2023-06-22T04:22:36;17.80;99.90
18218;DHT22;9234;49.344;11.120;2023-06-22T04:25:07;17.80;99.90
18218;DHT22;9234;49.344;11.120;2023-06-22T04:27:35;17.90;99.90
18218;DHT22;9234;49.344;11.120;2023-06-22T04:30:07;17.90;99.90
18218;DHT22;9234;49.344;11.120;2023-06-22T04:32:37;17.90;99.90
18218;DHT22;9234;49.344;11.120;2023-06-22T04:35:07;17.90;99.90
18218;DHT22;9234;49.344;11.120;2023-06-22T04:37:35;17.90;99.90
18218;DHT22;9234;49.344;11.120;2023-06-22T04:40:06;18.00;99.90
18218;DHT22;9234;49.344;11.120;2023-06-22T04:42:38;18.00;99.90
18218;DHT22;9234;49.344;11.120;2023-06-22T04:45:07;18.00;99.90
18218;DHT22;9234;49.344;11.120;2023-06-22T04:47:37;18.00;99.90
18218;DHT22;9234;49.344;11.120;2023-06-22T04:50:06;18.10;99.90
18218;DHT22;9234;49.344;11.120;2023-06-22T04:52:35;18.20;99.90
18218;DHT22;9234;49.344;11.120;2023-06-22T04:55:04;18.20;99.90
18218;DHT22;9234;49.344;11.120;2023-06-22T04:57:34;18.20;99.90
18218;DHT22;9234;49.344;11.120;2023-06-22T05:00:07;18.20;99.90
18218;DHT22;9234;49.344;11.120;2023-06-22T05:02:40;18.30;99.90
18218;DHT22;9234;49.344;11.120;2023-06-22T05:05:09;18.30;99.90
18218;DHT22;9234;49.344;11.120;2023-06-22T05:07:42;18.40;99.90
18218;DHT22;9234;49.344;11.120;2023-06-22T05:10:11;18.50;99.90
18218;DHT22;9234;49.344;11.120;2023-06-22T05:12:42;18.50;99.90
18218;DHT22;9234;49.344;11.120;2023-06-22T05:15:10;18.60;99.90
18218;DHT22;9234;49.344;11.120;2023-06-22T05:17:39;18.60;99.90
18218;DHT22;9234;49.344;11.120;2023-06-22T05:20:11;18.70;99.90
18218;DHT22;9234;49.344;11.120;2023-06-22T05:22:41;18.80;99.90
18218;DHT22;9234;49.344;11.120;2023-06-22T05:25:11;18.80;99.90
18218;DHT22;9234;49.344;11.120;2023-06-22T05:27:39;18.90;99.90
18218;DHT22;9234;49.344;11.120;2023-06-22T05:30:10;19.00;99.90
18218;DHT22;9234;49.344;11.120;2023-06-22T05:32:38;19.10;99.90
18218;DHT22;9234;49.344;11.120;2023-06-22T05:35:08;19.20;99.90
18218;DHT22;9234;49.344;11.120;2023-06-22T05:37:36;19.30;99.90
18218;DHT22;9234;49.344;11.120;2023-06-22T05:40:06;19.30;99.90
18218;DHT22;9234;49.344;11.120;2023-06-22T05:42:36;19.40;99.90
18218;DHT22;9234;49.344;11.120;2023-06-22T05:45:06;19.50;99.90
18218;DHT22;9234;49.344;11.120;2023-06-22T05:47:36;19.60;99.90
18218;DHT22;9234;49.344;11.120;2023-06-22T05:50:05;19.70;99.90
18218;DHT22;9234;49.344;11.120;2023-06-22T05:52:39;19.80;99.90
18218;DHT22;9234;49.344;11.120;2023-06-22T05:55:08;19.90;99.90
18218;DHT22;9234;49.344;11.120;2023-06-22T05:57:36;19.90;99.90
18218;DHT22;9234;49.344;11.120;2023-06-22T06:00:06;20.00;99.90
18218;DHT22;9234;49.344;11.120;2023-06-22T06:02:39;20.10;99.90
18218;DHT22;9234;49.344;11.120;2023-06-22T06:05:11;20.20;99.90
18218;DHT22;9234;49.344;11.120;2023-06-22T06:07:41;20.30;99.90
18218;DHT22;9234;49.344;11.120;2023-06-22T06:10:09;20.40;99.90
18218;DHT22;9234;49.344;11.120;2023-06-22T06:12:38;20.50;99.90
18218;DHT22;9234;49.344;11.120;2023-06-22T06:15:07;20.70;99.90
18218;DHT22;9234;49.344;11.120;2023-06-22T06:17:46;20.80;99.90
18218;DHT22;9234;49.344;11.120;2023-06-22T06:20:15;20.90;99.90
18218;DHT22;9234;49.344;11.120;2023-06-22T06:22:45;21.00;99.90
18218;DHT22;9234;49.344;11.120;2023-06-22T06:25:14;21.10;99.90
18218;DHT22;9234;49.344;11.120;2023-06-22T06:27:43;21.20;99.90
18218;DHT22;9234;49.344;11.120;2023-06-22T06:30:13;21.30;99.90
18218;DHT22;9234;49.344;11.120;2023-06-22T06:32:44;21.40;99.90
18218;DHT22;9234;49.344;11.120;2023-06-22T06:35:15;21.50;99.90
18218;DHT22;9234;49.344;11.120;2023-06-22T06:37:45;21.70;99.90
18218;DHT22;9234;49.344;11.120;2023-06-22T06:40:15;21.80;99.90
18218;DHT22;9234;49.344;11.120;2023-06-22T06:42:45;21.90;99.90
18218;DHT22;9234;49.344;11.120;2023-06-22T06:45:17;22.00;99.90
18218;DHT22;9234;49.344;11.120;2023-06-22T06:47:49;22.20;99.90
18218;DHT22;9234;49.344;11.120;2023-06-22T06:50:18;22.30;99.90
18218;DHT22;9234;49.344;11.120;2023-06-22T06:52:47;22.40;99.90
18218;DHT22;9234;49.344;11.120;2023-06-22T06:55:17;22.50;99.90
18218;DHT22;9234;49.344;11.120;2023-06-22T06:57:47;22.70;99.90
18218;DHT22;9234;49.344;11.120;2023-06-22T07:00:17;22.80;99.90
18218;DHT22;9234;49.344;11.120;2023-06-22T07:02:48;22.90;99.90
18218;DHT22;9234;49.344;11.120;2023-06-22T07:05:16;23.10;99.90
18218;DHT22;9234;49.344;11.120;2023-06-22T07:07:44;23.20;99.90
18218;DHT22;9234;49.344;11.120;2023-06-22T07:10:13;23.30;99.90
18218;DHT22;9234;49.344;11.120;2023-06-22T07:12:42;23.40;99.90
18218;DHT22;9234;49.344;11.120;2023-06-22T07:15:10;23.50;99.90
18218;DHT22;9234;49.344;11.120;2023-06-22T07:17:39;23.70;99.90
18218;DHT22;9234;49.344;11.120;2023-06-22T07:20:11;23.80;99.90
18218;DHT22;9234;49.344;11.120;2023-06-22T07:22:40;23.90;99.90
18218;DHT22;9234;49.344;11.120;2023-06-22T07:25:11;24.10;99.90
18218;DHT22;9234;49.344;11.120;2023-06-22T07:27:45;24.20;99.90
18218;DHT22;9234;49.344;11.120;2023-06-22T07:30:14;24.30;99.90
18218;DHT22;9234;49.344;11.120;2023-06-22T07:32:43;24.40;99.90
18218;DHT22;9234;49.344;11.120;2023-06-22T07:35:12;24.50;99.90
18218;DHT22;9234;49.344;11.120;2023-06-22T07:37:43;24.60;99.90
18218;DHT22;9234;49.344;11.120;2023-06-22T07:40:12;24.70;99.90
18218;DHT22;9234;49.344;11.120;2023-06-22T07:42:41;24.80;99.90
18218;DHT22;9234;49.344;11.120;2023-06-22T07:45:09;25.00;99.90
18218;DHT22;9234;49.344;11.120;2023-06-22T07:47:38;25.00;99.90
18218;DHT22;9234;49.344;11.120;2023-06-22T07:50:06;25.20;99.90
18218;DHT22;9234;49.344;11.120;2023-06-22T07:52:36;25.30;99.90
18218;DHT22;9234;49.344;11.120;2023-06-22T07:55:05;25.40;99.90
18218;DHT22;9234;49.344;11.120;2023-06-22T07:57:33;25.50;99.90
18218;DHT22;9234;49.344;11.120;2023-06-22T08:00:04;25.60;99.90
18218;DHT22;9234;49.344;11.120;2023-06-22T08:02:39;25.80;99.90
18218;DHT22;9234;49.344;11.120;2023-06-22T08:05:09;25.90;99.90
18218;DHT22;9234;49.344;11.120;2023-06-22T08:07:42;26.00;99.90
18218;DHT22;9234;49.344;11.120;2023-06-22T08:10:14;26.10;99.90
18218;DHT22;9234;49.344;11.120;2023-06-22T08:12:43;26.30;99.90
18218;DHT22;9234;49.344;11.120;2023-06-22T08:15:12;26.40;99.90
18218;DHT22;9234;49.344;11.120;2023-06-22T08:17:40;26.50;99.90
18218;DHT22;9234;49.344;11.120;2023-06-22T08:20:10;26.60;99.90
18218;DHT22;9234;49.344;11.120;2023-06-22T08:22:39;26.80;99.90
18218;DHT22;9234;49.344;11.120;2023-06-22T08:25:10;26.90;99.90
18218;DHT22;9234;49.344;11.120;2023-06-22T08:27:39;27.00;99.90
18218;DHT22;9234;49.344;11.120;2023-06-22T08:30:10;27.20;99.80
18218;DHT22;9234;49.344;11.120;2023-06-22T08:32:38;27.30;99.50
18218;DHT22;9234;49.344;11.120;2023-06-22T08:35:08;27.40;98.70
18218;DHT22;9234;49.344;11.120;2023-06-22T08:37:36;27.60;98.40
18218;DHT22;9234;49.344;11.120;2023-06-22T08:40:08;27.70;98.20
18218;DHT22;9234;49.344;11.120;2023-06-22T08:42:40;27.80;97.80
18218;DHT22;9234;49.344;11.120;2023-06-22T08:45:10;28.00;97.40
18218;DHT22;9234;49.344;11.120;2023-06-22T08:47:38;28.10;97.00
18218;DHT22;9234;49.344;11.120;2023-06-22T08:50:08;28.20;97.10
18218;DHT22;9234;49.344;11.120;2023-06-22T08:52:37;28.40;95.60
18218;DHT22;9234;49.344;11.120;2023-06-22T08:55:10;28.50;95.80
18218;DHT22;9234;49.344;11.120;2023-06-22T08:57:38;28.70;95.50
18218;DHT22;9234;49.344;11.120;2023-06-22T09:00:08;28.90;94.20
18218;DHT22;9234;49.344;11.120;2023-06-22T09:02:43;29.00;93.80
18218;DHT22;9234;49.344;11.120;2023-06-22T09:05:12;29.30;93.30
18218;DHT22;9234;49.344;11.120;2023-06-22T09:07:41;29.50;92.90
18218;DHT22;9234;49.344;11.120;2023-06-22T09:10:11;29.70;92.70
18218;DHT22;9234;49.344;11.120;2023-06-22T09:12:39;29.80;91.80
18218;DHT22;9234;49.344;11.120;2023-06-22T09:15:10;30.00;91.30
18218;DHT22;9234;49.344;11.120;2023-06-22T09:17:44;30.10;89.50
18218;DHT22;9234;49.344;11.120;2023-06-22T09:20:13;30.20;89.70
18218;DHT22;9234;49.344;11.120;2023-06-22T09:22:42;30.30;89.20
18218;DHT22;9234;49.344;11.120;2023-06-22T09:25:12;30.50;89.10
18218;DHT22;9234;49.344;11.120;2023-06-22T09:27:40;30.60;88.50
18218;DHT22;9234;49.344;11.120;2023-06-22T09:30:09;30.80;87.40
18218;DHT22;9234;49.344;11.120;2023-06-22T09:32:38;31.00;87.40
18218;DHT22;9234;49.344;11.120;2023-06-22T09:35:07;31.20;87.70
18218;DHT22;9234;49.344;11.120;2023-06-22T09:37:39;31.40;86.40
18218;DHT22;9234;49.344;11.120;2023-06-22T09:40:08;31.50;86.10
18218;DHT22;9234;49.344;11.120;2023-06-22T09:42:39;31.70;84.30
18218;DHT22;9234;49.344;11.120;2023-06-22T09:45:08;31.80;82.70
18218;DHT22;9234;49.344;11.120;2023-06-22T09:47:37;31.90;81.70
18218;DHT22;9234;49.344;11.120;2023-06-22T09:50:06;32.00;80.70
18218;DHT22;9234;49.344;11.120;2023-06-22T09:52:35;32.10;81.00
18218;DHT22;9234;49.344;11.120;2023-06-22T09:55:07;32.20;79.70
18218;DHT22;9234;49.344;11.120;2023-06-22T09:57:36;32.40;79.50
18218;DHT22;9234;49.344;11.120;2023-06-22T10:00:07;32.50;77.20
18218;DHT22;9234;49.344;11.120;2023-06-22T10:02:38;32.60;77.60
18218;DHT22;9234;49.344;11.120;2023-06-22T10:05:07;32.70;77.40
18218;DHT22;9234;49.344;11.120;2023-06-22T10:07:36;32.80;77.30
18218;DHT22;9234;49.344;11.120;2023-06-22T10:10:07;33.00;76.10
18218;DHT22;9234;49.344;11.120;2023-06-22T10:12:36;33.00;75.60
18218;DHT22;9234;49.344;11.120;2023-06-22T10:15:08;33.10;75.60
18218;DHT22;9234;49.344;11.120;2023-06-22T10:17:37;33.20;72.90
18218;DHT22;9234;49.344;11.120;2023-06-22T10:20:07;33.30;72.60
18218;DHT22;9234;49.344;11.120;2023-06-22T10:22:39;33.40;72.80
18218;DHT22;9234;49.344;11.120;2023-06-22T10:25:08;33.50;73.90
18218;DHT22;9234;49.344;11.120;2023-06-22T10:27:39;33.60;73.20
18218;DHT22;9234;49.344;11.120;2023-06-22T10:30:10;33.80;71.80
18218;DHT22;9234;49.344;11.120;2023-06-22T10:32:41;33.80;71.30
18218;DHT22;9234;49.344;11.120;2023-06-22T10:35:10;33.90;70.30
18218;DHT22;9234;49.344;11.120;2023-06-22T10:37:41;34.10;69.80
18218;DHT22;9234;49.344;11.120;2023-06-22T10:40:11;34.10;66.80
18218;DHT22;9234;49.344;11.120;2023-06-22T10:42:41;34.20;68.00
18218;DHT22;9234;49.344;11.120;2023-06-22T10:45:12;34.30;68.60
18218;DHT22;9234;49.344;11.120;2023-06-22T10:47:40;34.50;68.40
18218;DHT22;9234;49.344;11.120;2023-06-22T10:50:10;34.60;67.50
18218;DHT22;9234;49.344;11.120;2023-06-22T10:52:38;34.70;66.30
18218;DHT22;9234;49.344;11.120;2023-06-22T10:55:09;34.80;66.90
18218;DHT22;9234;49.344;11.120;2023-06-22T10:57:38;35.00;67.00
18218;DHT22;9234;49.344;11.120;2023-06-22T11:00:12;35.20;65.20
18218;DHT22;9234;49.344;11.120;2023-06-22T11:02:42;35.40;64.30
18218;DHT22;9234;49.344;11.120;2023-06-22T11:05:10;35.50;61.40
18218;DHT22;9234;49.344;11.120;2023-06-22T11:07:41;35.50;60.50
18218;DHT22;9234;49.344;11.120;2023-06-22T11:10:15;35.50;61.40
18218;DHT22;9234;49.344;11.120;2023-06-22T11:12:44;35.60;61.00
18218;DHT22;9234;49.344;11.120;2023-06-22T11:15:14;35.70;62.10
18218;DHT22;9234;49.344;11.120;2023-06-22T11:17:42;35.90;62.70
18218;DHT22;9234;49.344;11.120;2023-06-22T11:20:11;36.00;62.60
18218;DHT22;9234;49.344;11.120;2023-06-22T11:22:40;36.30;61.90
18218;DHT22;9234;49.344;11.120;2023-06-22T11:25:09;36.50;61.70
18218;DHT22;9234;49.344;11.120;2023-06-22T11:27:39;36.70;60.90
18218;DHT22;9234;49.344;11.120;2023-06-22T11:30:08;36.80;59.50
18218;DHT22;9234;49.344;11.120;2023-06-22T11:32:38;36.90;59.50
18218;DHT22;9234;49.344;11.120;2023-06-22T11:35:08;37.10;59.10
18218;DHT22;9234;49.344;11.120;2023-06-22T11:37:36;37.20;58.50
18218;DHT22;9234;49.344;11.120;2023-06-22T11:40:06;37.40;58.40
18218;DHT22;9234;49.344;11.120;2023-06-22T11:42:36;37.40;56.30
18218;DHT22;9234;49.344;11.120;2023-06-22T11:45:06;37.30;56.30
18218;DHT22;9234;49.344;11.120;2023-06-22T11:47:35;37.40;57.70
18218;DHT22;9234;49.344;11.120;2023-06-22T11:50:06;37.40;57.30
18218;DHT22;9234;49.344;11.120;2023-06-22T11:52:35;37.50;56.60
18218;DHT22;9234;49.344;11.120;2023-06-22T11:55:05;37.50;56.90
18218;DHT22;9234;49.344;11.120;2023-06-22T11:57:36;37.60;56.80
18218;DHT22;9234;49.344;11.120;2023-06-22T12:00:06;37.60;55.60
18218;DHT22;9234;49.344;11.120;2023-06-22T12:02:43;37.80;56.20
18218;DHT22;9234;49.344;11.120;2023-06-22T12:05:14;38.00;56.70
18218;DHT22;9234;49.344;11.120;2023-06-22T12:07:42;38.10;54.80
18218;DHT22;9234;49.344;11.120;2023-06-22T12:10:11;38.10;55.30
18218;DHT22;9234;49.344;11.120;2023-06-22T12:12:40;38.30;55.60
18218;DHT22;9234;49.344;11.120;2023-06-22T12:15:09;38.50;55.60
18218;DHT22;9234;49.344;11.120;2023-06-22T12:17:38;38.70;54.80
18218;DHT22;9234;49.344;11.120;2023-06-22T12:20:07;38.90;53.80
18218;DHT22;9234;49.344;11.120;2023-06-22T12:22:38;39.00;53.50
18218;DHT22;9234;49.344;11.120;2023-06-22T12:25:08;39.20;53.20
18218;DHT22;9234;49.344;11.120;2023-06-22T12:27:37;39.20;51.60
18218;DHT22;9234;49.344;11.120;2023-06-22T12:30:06;39.30;51.70
18218;DHT22;9234;49.344;11.120;2023-06-22T12:32:36;39.40;51.50
18218;DHT22;9234;49.344;11.120;2023-06-22T12:35:05;39.60;50.20
18218;DHT22;9234;49.344;11.120;2023-06-22T12:37:42;39.80;50.60
18218;DHT22;9234;49.344;11.120;2023-06-22T12:40:11;39.80;50.30
18218;DHT22;9234;49.344;11.120;2023-06-22T12:42:40;40.00;50.70
18218;DHT22;9234;49.344;11.120;2023-06-22T12:45:10;39.80;49.40
18218;DHT22;9234;49.344;11.120;2023-06-22T12:47:38;39.70;49.30
18218;DHT22;9234;49.344;11.120;2023-06-22T12:50:07;39.60;48.90
18218;DHT22;9234;49.344;11.120;2023-06-22T12:52:36;39.50;49.50
18218;DHT22;9234;49.344;11.120;2023-06-22T12:55:10;39.60;49.60
18218;DHT22;9234;49.344;11.120;2023-06-22T12:57:38;39.60;49.90
18218;DHT22;9234;49.344;11.120;2023-06-22T13:00:08;39.60;49.00
18218;DHT22;9234;49.344;11.120;2023-06-22T13:02:38;39.80;49.40
18218;DHT22;9234;49.344;11.120;2023-06-22T13:05:07;40.10;49.30
18218;DHT22;9234;49.344;11.120;2023-06-22T13:07:36;40.40;49.60
18218;DHT22;9234;49.344;11.120;2023-06-22T13:10:05;40.70;50.10
18218;DHT22;9234;49.344;11.120;2023-06-22T13:12:36;40.90;49.70
18218;DHT22;9234;49.344;11.120;2023-06-22T13:15:06;41.10;49.30
18218;DHT22;9234;49.344;11.120;2023-06-22T13:17:35;41.30;48.30
18218;DHT22;9234;49.344;11.120;2023-06-22T13:20:04;41.50;48.20
18218;DHT22;9234;49.344;11.120;2023-06-22T13:22:35;41.50;46.40
18218;DHT22;9234;49.344;11.120;2023-06-22T13:25:08;41.30;45.80
18218;DHT22;9234;49.344;11.120;2023-06-22T13:27:41;41.10;46.30
18218;DHT22;9234;49.344;11.120;2023-06-22T13:30:14;40.80;45.70
18218;DHT22;9234;49.344;11.120;2023-06-22T13:32:48;40.60;45.70
18218;DHT22;9234;49.344;11.120;2023-06-22T13:35:22;40.60;45.60
18218;DHT22;9234;49.344;11.120;2023-06-22T13:37:54;40.70;46.10
18218;DHT22;9234;49.344;11.120;2023-06-22T13:40:25;40.70;45.00
18218;DHT22;9234;49.344;11.120;2023-06-22T13:42:55;40.60;45.10
18218;DHT22;9234;49.344;11.120;2023-06-22T13:45:24;40.30;45.00
18218;DHT22;9234;49.344;11.120;2023-06-22T13:47:52;40.10;46.10
18218;DHT22;9234;49.344;11.120;2023-06-22T13:50:21;39.90;45.50
18218;DHT22;9234;49.344;11.120;2023-06-22T13:52:49;39.70;45.30
18218;DHT22;9234;49.344;11.120;2023-06-22T13:55:18;39.50;45.90
18218;DHT22;9234;49.344;11.120;2023-06-22T13:57:47;39.40;46.50
18218;DHT22;9234;49.344;11.120;2023-06-22T14:00:18;39.10;46.90
18218;DHT22;9234;49.344;11.120;2023-06-22T14:02:47;39.10;47.60
18218;DHT22;9234;49.344;11.120;2023-06-22T14:05:15;39.10;48.10
18218;DHT22;9234;49.344;11.120;2023-06-22T14:07:43;39.30;48.50
18218;DHT22;9234;49.344;11.120;2023-06-22T14:10:12;39.40;48.10
18218;DHT22;9234;49.344;11.120;2023-06-22T14:12:40;39.60;47.10
18218;DHT22;9234;49.344;11.120;2023-06-22T14:15:09;39.90;48.10
18218;DHT22;9234;49.344;11.120;2023-06-22T14:17:39;40.20;47.00
18218;DHT22;9234;49.344;11.120;2023-06-22T14:20:08;40.30;45.90
18218;DHT22;9234;49.344;11.120;2023-06-22T14:22:37;40.30;46.10
18218;DHT22;9234;49.344;11.120;2023-06-22T14:25:07;40.30;46.70
18218;DHT22;9234;49.344;11.120;2023-06-22T14:27:35;40.20;46.10
18218;DHT22;9234;49.344;11.120;2023-06-22T14:30:05;40.00;46.30
18218;DHT22;9234;49.344;11.120;2023-06-22T14:32:34;39.80;46.60
18218;DHT22;9234;49.344;11.120;2023-06-22T14:35:04;39.60;46.20
18218;DHT22;9234;49.344;11.120;2023-06-22T14:37:33;39.70;46.30
18218;DHT22;9234;49.344;11.120;2023-06-22T14:40:01;39.70;47.90
18218;DHT22;9234;49.344;11.120;2023-06-22T14:42:30;39.80;49.00
18218;DHT22;9234;49.344;11.120;2023-06-22T14:44:58;39.90;47.70
18218;DHT22;9234;49.344;11.120;2023-06-22T14:47:26;40.00;47.20
18218;DHT22;9234;49.344;11.120;2023-06-22T14:49:55;40.10;45.80
18218;DHT22;9234;49.344;11.120;2023-06-22T14:52:24;40.00;44.50
18218;DHT22;9234;49.344;11.120;2023-06-22T14:54:53;40.10;45.90
18218;DHT22;9234;49.344;11.120;2023-06-22T14:57:23;40.30;46.40
18218;DHT22;9234;49.344;11.120;2023-06-22T14:59:51;40.80;46.10
18218;DHT22;9234;49.344;11.120;2023-06-22T15:02:20;41.30;44.00
18218;DHT22;9234;49.344;11.120;2023-06-22T15:04:48;41.70;45.80
18218;DHT22;9234;49.344;11.120;2023-06-22T15:07:17;42.10;44.60
18218;DHT22;9234;49.344;11.120;2023-06-22T15:09:47;42.60;43.70
18218;DHT22;9234;49.344;11.120;2023-06-22T15:12:15;43.00;44.30
18218;DHT22;9234;49.344;11.120;2023-06-22T15:14:44;43.40;44.10
18218;DHT22;9234;49.344;11.120;2023-06-22T15:17:12;43.70;42.60
18218;DHT22;9234;49.344;11.120;2023-06-22T15:19:42;43.80;41.80
18218;DHT22;9234;49.344;11.120;2023-06-22T15:22:10;43.80;40.80
18218;DHT22;9234;49.344;11.120;2023-06-22T15:24:39;43.60;40.60
18218;DHT22;9234;49.344;11.120;2023-06-22T15:27:09;43.20;41.00
18218;DHT22;9234;49.344;11.120;2023-06-22T15:29:38;42.90;41.60
18218;DHT22;9234;49.344;11.120;2023-06-22T15:32:07;42.60;42.90
18218;DHT22;9234;49.344;11.120;2023-06-22T15:34:35;42.50;43.40
18218;DHT22;9234;49.344;11.120;2023-06-22T15:37:04;42.70;42.60
18218;DHT22;9234;49.344;11.120;2023-06-22T15:39:32;43.00;42.50
18218;DHT22;9234;49.344;11.120;2023-06-22T15:42:01;43.10;41.80
18218;DHT22;9234;49.344;11.120;2023-06-22T15:44:31;43.40;42.00
18218;DHT22;9234;49.344;11.120;2023-06-22T15:46:59;43.80;42.30